Time;durP1;ratioP1;P1;durP2;ratioP2;P2;SDS_P1;SDS_P2;PMS_P1;PMS_P2;Temp;Humidity;BMP_temperature;BMP_pressure;BME280_temperature;BME280_humidity;BME280_pressure;Samples;Min_cycle;Max_cycle;Signal;HPM_P1;HPM_P2
2022/02/08 00:00:06;;;;;;;25.40;5.65;;;;;;;;;;4406261;32;20376;-71
2022/02/08 00:02:34;;;;;;;;;;;;;;;;;;4407278;32;20102;-73
2022/02/08 00:04:59;;;;;;;37.00;7.25;;;;;;;;;;4407567;32;19946;-72
2022/02/08 00:07:29;;;;;;;;;;;;;;;;;;4408031;32;20457;-71
2022/02/08 00:09:54;;;;;;;27.25;5.78;;;;;;;;;;4407322;32;19941;-71
2022/02/08 00:12:20;;;;;;;;;;;;;;;;;;4407732;32;20057;-71
2022/02/08 00:14:46;;;;;;;37.33;6.93;;;;;;;;;;4407974;32;20023;-71
2022/02/08 00:17:11;;;;;;;43.10;6.95;;;;;;;;;;4407751;32;20137;-71
2022/02/08 00:19:36;;;;;;;;;;;;;;;;;;4408806;32;20018;-71
2022/02/08 00:22:02;;;;;;;29.25;6.53;;;;;;;;;;4407325;32;19972;-72
2022/02/08 00:24:28;;;;;;;36.28;8.75;;;;;;;;;;4407503;32;20022;-72
2022/02/08 00:26:54;;;;;;;;;;;;;;;;;;4407494;32;20163;-72
2022/02/08 00:29:21;;;;;;;30.48;6.72;;;;;;;;;;4391072;32;19954;-72
2022/02/08 00:31:46;;;;;;;34.65;6.45;;;;;;;;;;4391964;32;20019;-71
2022/02/08 00:34:11;;;;;;;;;;;;;;;;;;4392587;32;20057;-71
2022/02/08 00:36:36;;;;;;;34.47;5.82;;;;;;;;;;4392885;32;19933;-72
2022/02/08 00:39:01;;;;;;;;;;;;;;;;;;4394815;32;20049;-72
2022/02/08 00:41:27;;;;;;;30.25;5.00;;;;;;;;;;4394076;32;20276;-73
2022/02/08 00:43:59;;;;;;;;;;;;;;;;;;4396253;32;20449;-71
2022/02/08 00:49:10;;;;;;;26.15;5.53;;;;;;;;;;4407969;32;20363;-71
2022/02/08 00:51:42;;;;;;;26.77;5.32;;;;;;;;;;4408705;32;20052;-72
2022/02/08 00:54:08;;;;;;;31.08;6.47;;;;;;;;;;4395400;32;20040;-71
2022/02/08 00:59:14;;;;;;;32.13;6.70;;;;;;;;;;4511414;27;19933;-87
2022/02/08 01:01:45;;;;;;;31.00;6.85;;;;;;;;;;4378287;32;20061;-87
2022/02/08 01:04:18;;;;;;;35.00;6.30;;;;;;;;;;4392707;32;20452;-87
2022/02/08 01:06:43;;;;;;;43.03;6.70;;;;;;;;;;4378290;32;20407;-87
2022/02/08 01:09:23;;;;;;;;;;;;;;;;;;4392393;32;20034;-87
2022/02/08 01:11:52;;;;;;;40.58;7.55;;;;;;;;;;4367267;32;19945;-86
2022/02/08 01:14:30;;;;;;;32.53;6.70;;;;;;;;;;4378270;32;20077;-86
2022/02/08 01:16:55;;;;;;;25.05;5.80;;;;;;;;;;4378891;32;20437;-87
2022/02/08 01:19:22;;;;;;;;;;;;;;;;;;4377947;32;20050;-87
2022/02/08 01:21:48;;;;;;;30.23;7.03;;;;;;;;;;4391966;32;19942;-86
2022/02/08 01:24:16;;;;;;;;;;;;;;;;;;4376113;32;20070;-87
2022/02/08 01:26:50;;;;;;;26.70;5.43;;;;;;;;;;4363642;32;20291;-87
2022/02/08 01:29:22;;;;;;;31.85;7.35;;;;;;;;;;4376944;32;20046;-87
2022/02/08 01:32:00;;;;;;;30.85;7.07;;;;;;;;;;4363134;32;20023;-87
2022/02/08 01:34:42;;;;;;;27.75;7.10;;;;;;;;;;4362803;32;20434;-87
2022/02/08 01:40:05;;;;;;;22.90;5.60;;;;;;;;;;4363762;32;20030;-72
2022/02/08 01:42:44;;;;;;;30.50;7.10;;;;;;;;;;4349134;32;20473;-71
2022/02/08 01:48:00;;;;;;;26.27;6.75;;;;;;;;;;4362862;32;20027;-71
2022/02/08 01:50:25;;;;;;;21.85;5.87;;;;;;;;;;4362100;32;20016;-70
2022/02/08 01:52:50;;;;;;;;;;;;;;;;;;4371889;32;20049;-70
2022/02/08 01:55:16;;;;;;;23.00;5.62;;;;;;;;;;4376061;32;20312;-72
2022/02/08 01:57:41;;;;;;;;;;;;;;;;;;4362750;32;20027;-72
2022/02/08 02:00:08;;;;;;;23.12;6.55;;;;;;;;;;4377636;32;19949;-72
2022/02/08 02:02:33;;;;;;;21.10;5.50;;;;;;;;;;4377085;32;20023;-70
2022/02/08 02:04:58;;;;;;;;;;;;;;;;;;4377993;32;20058;-71
2022/02/08 02:07:24;;;;;;;24.15;6.28;;;;;;;;;;4375799;32;19964;-71
2022/02/08 02:09:49;;;;;;;21.35;6.47;;;;;;;;;;4363367;32;20066;-70
2022/02/08 02:12:14;;;;;;;;;;;;;;;;;;4377415;32;20061;-70
2022/02/08 02:14:40;;;;;;;28.30;6.60;;;;;;;;;;4377202;32;20315;-73
2022/02/08 02:17:08;;;;;;;;;;;;;;;;;;4362331;32;20157;-72
2022/02/08 02:19:33;;;;;;;26.27;6.55;;;;;;;;;;4375296;32;19934;-71
2022/02/08 02:21:58;;;;;;;;;;;;;;;;;;4362020;32;20085;-72
2022/02/08 02:24:23;;;;;;;26.60;6.97;;;;;;;;;;4375929;32;20213;-72
2022/02/08 02:26:48;;;;;;;;;;;;;;;;;;4375939;32;20055;-72
2022/02/08 02:29:14;;;;;;;20.60;6.40;;;;;;;;;;4362247;32;19976;-72
2022/02/08 02:31:39;;;;;;;;;;;;;;;;;;4377280;32;20238;-72
2022/02/08 02:34:05;;;;;;;27.98;7.22;;;;;;;;;;4375636;32;19934;-73
2022/02/08 02:36:30;;;;;;;;;;;;;;;;;;4375487;32;20042;-72
2022/02/08 02:38:55;;;;;;;31.48;5.75;;;;;;;;;;4372404;32;19949;-71
2022/02/08 02:41:20;;;;;;;;;;;;;;;;;;4391491;32;20122;-72
2022/02/08 02:43:45;;;;;;;19.82;5.00;;;;;;;;;;4390450;32;19949;-72
2022/02/08 02:46:10;;;;;;;;;;;;;;;;;;4391660;32;20018;-73
2022/02/08 02:48:36;;;;;;;25.92;5.20;;;;;;;;;;4390830;32;19993;-71
2022/02/08 02:51:01;;;;;;;;;;;;;;;;;;4377854;32;20573;-72
2022/02/08 02:53:26;;;;;;;19.98;4.97;;;;;;;;;;4391527;32;19942;-72
2022/02/08 02:55:51;;;;;;;;;;;;;;;;;;4377753;32;20020;-71
2022/02/08 02:58:17;;;;;;;26.25;5.12;;;;;;;;;;4391376;32;19981;-71
2022/02/08 03:00:50;;;;;;;;;;;;;;;;;;4377318;32;20057;-71
2022/02/08 03:04:09;;;;;;;21.42;5.72;;;;;;;;;;4377595;32;19930;-71
2022/02/08 03:19:34;;;;;;;16.20;4.50;;;;;;;;;;4391718;32;20073;-72
2022/02/08 03:21:59;;;;;;;;;;;;;;;;;;4377830;32;20434;-72
2022/02/08 03:24:24;;;;;;;21.58;5.93;;;;;;;;;;4376348;32;19956;-71
2022/02/08 03:26:49;;;;;;;;;;;;;;;;;;4390501;32;20056;-71
2022/02/08 03:29:15;;;;;;;18.00;5.15;;;;;;;;;;4391038;32;19999;-71
2022/02/08 03:31:40;;;;;;;;;;;;;;;;;;4378103;32;20031;-72
2022/02/08 03:34:05;;;;;;;20.17;4.82;;;;;;;;;;4392218;32;19930;-71
2022/02/08 03:36:30;;;;;;;;;;;;;;;;;;4394954;32;20049;-72
2022/02/08 03:39:11;;;;;;;20.45;5.87;;;;;;;;;;4393331;32;19938;-71
2022/02/08 03:41:42;;;;;;;20.73;6.28;;;;;;;;;;4394398;32;20396;-70
2022/02/08 03:44:15;;;;;;;18.25;4.97;;;;;;;;;;4394624;32;20080;-71
2022/02/08 03:46:40;;;;;;;14.45;3.70;;;;;;;;;;4394733;32;20022;-71
2022/02/08 03:49:05;;;;;;;;;;;;;;;;;;4379085;32;20424;-71
2022/02/08 03:51:37;;;;;;;14.68;3.78;;;;;;;;;;4380307;32;19972;-70
2022/02/08 03:54:02;;;;;;;19.87;3.53;;;;;;;;;;4393599;32;20119;-71
2022/02/08 03:56:27;;;;;;;;;;;;;;;;;;4393055;32;20383;-71
2022/02/08 03:58:56;;;;;;;19.25;4.05;;;;;;;;;;4378774;32;19948;-71
2022/02/08 04:04:08;;;;;;;;;;;;;;;;;;4393947;32;20039;-71
2022/02/08 04:06:32;;;;;;;14.85;3.25;;;;;;;;;;4392652;32;19931;-71
2022/02/08 04:08:59;;;;;;;;;;;;;;;;;;4394365;32;20065;-71
2022/02/08 04:11:24;;;;;;;17.20;4.72;;;;;;;;;;4392264;32;19948;-73
2022/02/08 04:14:12;;;;;;;;;;;;;;;;;;4392672;32;20423;-72
2022/02/08 04:16:39;;;;;;;13.32;3.42;;;;;;;;;;4378552;32;20312;-71
2022/02/08 04:19:23;;;;;;;20.48;4.55;;;;;;;;;;4393650;32;20091;-71
2022/02/08 04:33:06;;;;;;;20.45;3.67;;;;;;;;;;4393432;32;20371;-71
2022/02/08 04:36:00;;;;;;;24.20;3.30;;;;;;;;;;4391924;32;20019;-71
2022/02/08 04:38:43;;;;;;;18.30;3.72;;;;;;;;;;4378990;32;20056;-72
2022/02/08 04:41:15;;;;;;;13.98;3.37;;;;;;;;;;4378502;32;20386;-72
2022/02/08 04:44:20;;;;;;;12.35;3.08;;;;;;;;;;4393736;32;20053;-71
2022/02/08 04:48:56;;;;;;;13.82;3.58;;;;;;;;;;4392300;32;20102;-71
2022/02/08 04:51:33;;;;;;;15.07;3.33;;;;;;;;;;4380099;32;20404;-70
2022/02/08 04:54:10;;;;;;;13.20;3.87;;;;;;;;;;4393199;32;20022;-72
2022/02/08 05:01:51;;;;;;;19.33;3.05;;;;;;;;;;4392464;32;19938;-72
2022/02/08 05:34:38;;;;;;;17.45;3.30;;;;;;;;;;4392302;32;19941;-72
2022/02/08 05:42:46;;;;;;;14.13;3.55;;;;;;;;;;4392726;32;20045;-72
2022/02/08 05:47:46;;;;;;;17.20;3.35;;;;;;;;;;4392507;32;20065;-72
2022/02/08 05:51:00;;;;;;;18.73;3.03;;;;;;;;;;4392214;32;20366;-72
2022/02/08 05:55:26;;;;;;;14.00;2.78;;;;;;;;;;4392212;32;20391;-72
2022/02/08 05:57:52;;;;;;;;;;;;;;;;;;4391351;32;20053;-73
2022/02/08 06:00:17;;;;;;;19.42;3.35;;;;;;;;;;4378498;32;19945;-71
2022/02/08 06:02:42;;;;;;;;;;;;;;;;;;4377719;32;20022;-72
2022/02/08 06:05:13;;;;;;;10.98;3.20;;;;;;;;;;4390466;32;19968;-71
2022/02/08 06:07:38;;;;;;;16.65;2.85;;;;;;;;;;4392012;32;20027;-71
2022/02/08 06:10:03;;;;;;;;;;;;;;;;;;4392260;32;20121;-72
2022/02/08 06:12:29;;;;;;;19.70;4.18;;;;;;;;;;4391189;32;19987;-72
2022/02/08 06:15:06;;;;;;;;;;;;;;;;;;4391098;32;20094;-72
2022/02/08 06:17:31;;;;;;;9.15;2.75;;;;;;;;;;4377889;32;19945;-72
2022/02/08 06:19:57;;;;;;;;;;;;;;;;;;4391327;32;20057;-71
2022/02/08 06:22:22;;;;;;;14.25;3.03;;;;;;;;;;4391454;32;19957;-71
2022/02/08 06:24:48;;;;;;;;;;;;;;;;;;4391097;32;20458;-72
2022/02/08 06:27:13;;;;;;;15.40;3.17;;;;;;;;;;4377861;32;20296;-72
2022/02/08 06:29:38;;;;;;;;;;;;;;;;;;4390483;32;20031;-72
2022/02/08 06:32:03;;;;;;;20.35;3.28;;;;;;;;;;4391244;32;19933;-71
2022/02/08 06:34:31;;;;;;;;;;;;;;;;;;4390767;32;20093;-72
2022/02/08 06:37:02;;;;;;;;;;;;;;;;;;4391142;32;19947;-72
2022/02/08 06:39:33;;;;;;;14.87;2.53;;;;;;;;;;4376575;32;19946;-73
2022/02/08 06:41:58;;;;;;;19.10;3.55;;;;;;;;;;4377848;32;20015;-71
2022/02/08 06:44:23;;;;;;;;;;;;;;;;;;4391506;32;20048;-71
2022/02/08 06:46:48;;;;;;;13.62;3.40;;;;;;;;;;4376780;32;19933;-73
2022/02/08 06:49:13;;;;;;;;;;;;;;;;;;4392627;32;20053;-72
2022/02/08 06:51:39;;;;;;;14.65;2.70;;;;;;;;;;4377969;32;20040;-72
2022/02/08 06:54:04;;;;;;;;;;;;;;;;;;4370027;32;20023;-71
2022/02/08 06:56:29;;;;;;;12.07;2.75;;;;;;;;;;4384787;32;19976;-73
2022/02/08 06:59:03;;;;;;;;;;;;;;;;;;4392741;32;20118;-72
2022/02/08 07:01:32;;;;;;;14.48;2.65;;;;;;;;;;4378808;32;19940;-73
2022/02/08 07:03:57;;;;;;;13.82;2.80;;;;;;;;;;4392719;32;20030;-72
2022/02/08 07:06:23;;;;;;;;;;;;;;;;;;4390739;32;20023;-72
2022/02/08 07:08:48;;;;;;;12.23;2.78;;;;;;;;;;4390283;32;19979;-72
2022/02/08 07:11:17;;;;;;;;;;;;;;;;;;4390641;32;20022;-73
2022/02/08 07:13:43;;;;;;;13.23;2.53;;;;;;;;;;4390647;32;19952;-72
2022/02/08 07:16:10;;;;;;;8.98;2.28;;;;;;;;;;4389439;32;20061;-72
2022/02/08 07:18:35;;;;;;;11.15;2.40;;;;;;;;;;4389046;32;20034;-73
2022/02/08 07:21:00;;;;;;;;;;;;;;;;;;4391204;32;20132;-73
2022/02/08 07:23:25;;;;;;;13.38;2.83;;;;;;;;;;4366695;32;19985;-73
2022/02/08 07:25:53;;;;;;;;;;;;;;;;;;4384564;32;20127;-72
2022/02/08 07:28:18;;;;;;;;;;;;;;;;;;4387213;32;19933;-72
2022/02/08 07:30:44;;;;;;;12.88;2.30;;;;;;;;;;4369775;32;19997;-73
2022/02/08 07:33:09;;;;;;;;;;;;;;;;;;4390138;32;20158;-73
2022/02/08 07:36:02;;;;;;;12.57;3.10;;;;;;;;;;4390824;32;19967;-73
2022/02/08 07:38:34;;;;;;;10.57;3.22;;;;;;;;;;4373159;32;20047;-74
2022/02/08 07:43:24;;;;;;;;;;;;;;;;;;4388402;32;20031;-73
2022/02/08 07:45:50;;;;;;;9.24;2.42;;;;;;;;;;4389341;32;20371;-72
2022/02/08 07:48:15;;;;;;;;;;;;;;;;;;4388634;32;20038;-72
2022/02/08 07:50:41;;;;;;;11.45;2.35;;;;;;;;;;4389020;32;20018;-74
2022/02/08 07:53:08;;;;;;;;;;;;;;;;;;4376097;32;20126;-73
2022/02/08 07:55:34;;;;;;;15.88;2.45;;;;;;;;;;4371632;32;20022;-74
2022/02/08 07:57:59;;;;;;;;;;;;;;;;;;4378675;32;20521;-74
2022/02/08 08:00:24;;;;;;;8.20;1.85;;;;;;;;;;4375452;32;19971;-75
2022/02/08 08:02:52;;;;;;;;;;;;;;;;;;4365713;32;20170;-73
2022/02/08 08:05:17;;;;;;;9.13;2.03;;;;;;;;;;4389112;32;19942;-73
2022/02/08 08:07:42;;;;;;;;;;;;;;;;;;4389459;32;20310;-72
2022/02/08 08:10:08;;;;;;;10.60;2.40;;;;;;;;;;4389798;32;20263;-72
2022/02/08 08:12:36;;;;;;;;;;;;;;;;;;4376482;32;20019;-72
2022/02/08 08:15:09;;;;;;;9.35;2.37;;;;;;;;;;4389624;32;19964;-73
2022/02/08 08:17:51;;;;;;;12.15;3.65;;;;;;;;;;4389483;32;20378;-74
2022/02/08 08:20:16;;;;;;;15.00;2.92;;;;;;;;;;4391278;32;20208;-73
2022/02/08 08:22:41;;;;;;;;;;;;;;;;;;4393118;32;20392;-72
2022/02/08 08:25:06;;;;;;;16.80;2.67;;;;;;;;;;4392189;32;19933;-73
2022/02/08 08:27:32;;;;;;;;;;;;;;;;;;4389252;32;20087;-72
2022/02/08 08:29:57;;;;;;;10.10;2.25;;;;;;;;;;4379385;32;20001;-72
2022/02/08 08:32:23;;;;;;;;;;;;;;;;;;4378157;32;20419;-73
2022/02/08 08:34:49;;;;;;;9.30;2.10;;;;;;;;;;4391772;32;19938;-71
2022/02/08 08:37:14;;;;;;;;;;;;;;;;;;4392070;32;20418;-73
2022/02/08 08:39:46;;;;;;;10.73;3.15;;;;;;;;;;4391254;32;19980;-73
2022/02/08 08:42:24;;;;;;;11.60;3.12;;;;;;;;;;4392159;32;20565;-74
2022/02/08 08:45:11;;;;;;;10.30;2.58;;;;;;;;;;4377316;32;20492;-74
2022/02/08 08:50:50;;;;;;;9.45;2.25;;;;;;;;;;4393384;32;20092;-72
2022/02/08 08:53:15;;;;;;;11.57;2.15;;;;;;;;;;4391316;32;20023;-74
2022/02/08 08:55:41;;;;;;;;;;;;;;;;;;4379311;32;20053;-73
2022/02/08 08:58:06;;;;;;;8.25;1.95;;;;;;;;;;4377181;32;19985;-73
2022/02/08 09:00:31;;;;;;;;;;;;;;;;;;4391436;32;20390;-73
2022/02/08 09:02:56;;;;;;;9.98;2.15;;;;;;;;;;4391348;32;19941;-72
2022/02/08 09:05:21;;;;;;;;;;;;;;;;;;4393128;32;20515;-73
2022/02/08 09:07:47;;;;;;;8.38;2.10;;;;;;;;;;4391778;32;19981;-74
2022/02/08 09:10:16;;;;;;;;;;;;;;;;;;4391136;32;20031;-72
2022/02/08 09:20:45;;;;;;;9.90;2.60;;;;;;;;;;4393044;32;20021;-73
2022/02/08 09:28:53;;;;;;;7.00;1.83;;;;;;;;;;4392470;32;20041;-73
2022/02/08 09:31:11;;;;;;;10.70;3.30;;;;;;;;;;4391647;32;20030;-73
2022/02/08 09:33:36;;;;;;;7.57;2.10;;;;;;;;;;4389771;32;20081;-72
2022/02/08 09:36:01;;;;;;;;;;;;;;;;;;4391999;32;20049;-72
2022/02/08 09:38:30;;;;;;;16.87;3.58;;;;;;;;;;4391335;32;19949;-73
2022/02/08 09:40:57;;;;;;;11.63;2.72;;;;;;;;;;4376995;32;20465;-73
2022/02/08 09:43:22;;;;;;;15.85;2.28;;;;;;;;;;4391697;32;20466;-73
2022/02/08 09:45:47;;;;;;;;;;;;;;;;;;4376919;32;20035;-72
2022/02/08 09:48:20;;;;;;;11.10;2.70;;;;;;;;;;4389935;32;19968;-73
2022/02/08 09:50:48;;;;;;;9.38;2.35;;;;;;;;;;4378838;32;20054;-74
2022/02/08 09:53:19;;;;;;;17.48;2.90;;;;;;;;;;4390941;32;20029;-72
2022/02/08 09:55:44;;;;;;;15.60;2.83;;;;;;;;;;4390365;32;20474;-72
2022/02/08 09:58:09;;;;;;;;;;;;;;;;;;4377046;32;20054;-73
2022/02/08 10:00:35;;;;;;;11.98;2.85;;;;;;;;;;4390975;32;19972;-72
2022/02/08 10:03:05;;;;;;;11.07;2.67;;;;;;;;;;4377489;32;20054;-73
2022/02/08 10:05:42;;;;;;;11.90;2.65;;;;;;;;;;4390904;32;20107;-73
2022/02/08 10:08:08;;;;;;;8.10;2.10;;;;;;;;;;4391800;32;20080;-72
2022/02/08 10:10:33;;;;;;;;;;;;;;;;;;4390624;32;20046;-73
2022/02/08 10:23:52;;;;;;;6.50;1.90;;;;;;;;;;4391371;32;20065;-73
2022/02/08 10:26:24;;;;;;;;;;;;;;;;;;4391946;32;20437;-73
2022/02/08 10:28:55;;;;;;;11.07;2.33;;;;;;;;;;4391759;32;19953;-72
2022/02/08 10:31:33;;;;;;;10.27;2.45;;;;;;;;;;4390591;32;20042;-72
2022/02/08 10:40:03;;;;;;;9.13;2.10;;;;;;;;;;4389350;32;20077;-73
2022/02/08 10:42:29;;;;;;;16.37;2.97;;;;;;;;;;4375611;32;20046;-73
2022/02/08 10:44:54;;;;;;;;;;;;;;;;;;4391202;32;20446;-72
2022/02/08 10:47:39;;;;;;;6.37;1.85;;;;;;;;;;4390534;32;19934;-73
2022/02/08 10:50:06;;;;;;;14.50;2.33;;;;;;;;;;4389909;32;20356;-73
2022/02/08 10:52:32;;;;;;;12.37;2.12;;;;;;;;;;4389486;32;20363;-72
2022/02/08 10:55:04;;;;;;;;;;;;;;;;;;4390817;32;20072;-73
2022/02/08 10:57:40;;;;;;;10.50;2.28;;;;;;;;;;4375857;32;19974;-74
2022/02/08 11:00:06;;;;;;;10.68;1.92;;;;;;;;;;4377712;32;20339;-73
2022/02/08 11:02:39;;;;;;;7.35;2.03;;;;;;;;;;4363144;32;20030;-73
2022/02/08 11:05:18;;;;;;;11.20;2.10;;;;;;;;;;4375560;32;20375;-72
2022/02/08 11:08:04;;;;;;;7.55;1.77;;;;;;;;;;4390101;32;20023;-73
2022/02/08 11:13:35;;;;;;;12.75;1.80;;;;;;;;;;4389691;32;20030;-72
2022/02/08 11:16:13;;;;;;;9.48;2.78;;;;;;;;;;4389956;32;20046;-72
2022/02/08 11:18:58;;;;;;;11.55;1.98;;;;;;;;;;4377487;32;20030;-72
2022/02/08 11:26:19;;;;;;;;;;;;;;;;;;4391390;32;20030;-72
2022/02/08 11:28:48;;;;;;;7.12;2.37;;;;;;;;;;4389933;32;19949;-72
2022/02/08 11:31:36;;;;;;;10.18;2.70;;;;;;;;;;4377706;32;20412;-71
2022/02/08 11:40:00;;;;;;;14.90;2.00;;;;;;;;;;4390030;32;20108;-73
2022/02/08 11:45:39;;;;;;;11.75;2.03;;;;;;;;;;4392318;32;20502;-72
2022/02/08 11:48:14;;;;;;;11.02;2.15;;;;;;;;;;4390588;32;20030;-73
2022/02/08 11:53:30;;;;;;;;;;;;;;;;;;4391476;32;20442;-72
2022/02/08 11:59:21;;;;;;;8.88;1.95;;;;;;;;;;4393907;32;20023;-73
2022/02/08 12:09:31;;;;;;;8.85;3.03;;;;;;;;;;4392844;32;20034;-73
2022/02/08 12:12:26;;;;;;;10.95;2.85;;;;;;;;;;4393405;32;20085;-73
2022/02/08 12:29:34;;;;;;;8.07;1.87;;;;;;;;;;4393465;32;20126;-73
2022/02/08 12:35:02;;;;;;;9.38;2.17;;;;;;;;;;4350137;32;20073;-73
2022/02/08 12:39:56;;;;;;;;;;;;;;;;;;4392044;32;20034;-73
2022/02/08 12:51:15;;;;;;;13.85;3.25;;;;;;;;;;4392539;32;20473;-73
2022/02/08 12:53:44;;;;;;;9.63;2.22;;;;;;;;;;4391671;32;20066;-73
2022/02/08 12:58:49;;;;;;;;;;;;;;;;;;4392795;32;20041;-72
2022/02/08 13:14:23;;;;;;;9.70;2.20;;;;;;;;;;4391453;32;19946;-73
2022/02/08 14:05:54;;;;;;;9.02;1.98;;;;;;;;;;4361425;32;20046;-74
2022/02/08 14:08:34;;;;;;;10.82;2.70;;;;;;;;;;4360634;32;20016;-73
2022/02/08 14:16:17;;;;;;;15.10;2.15;;;;;;;;;;4360602;32;20042;-73
2022/02/08 14:19:05;;;;;;;7.57;2.30;;;;;;;;;;4346199;33;20050;-73
2022/02/08 14:24:15;;;;;;;;;;;;;;;;;;4360839;32;20019;-70
2022/02/08 14:34:58;;;;;;;12.80;2.15;;;;;;;;;;4339295;33;19949;-73
2022/02/08 14:48:50;;;;;;;8.68;2.62;;;;;;;;;;4360783;32;20416;-73
2022/02/08 15:09:52;;;;;;;;;;;;;;;;;;4390857;32;20105;-72
2022/02/08 15:12:20;;;;;;;6.43;2.17;;;;;;;;;;4390561;32;19979;-72
2022/02/08 15:17:10;;;;;;;;;;;;;;;;;;4386670;32;20034;-73
2022/02/08 15:19:38;;;;;;;13.23;2.60;;;;;;;;;;4382027;32;19942;-72
2022/02/08 15:22:04;;;;;;;12.65;2.30;;;;;;;;;;4375814;32;20134;-72
2022/02/08 15:24:29;;;;;;;6.97;2.00;;;;;;;;;;4377460;32;20039;-73
2022/02/08 15:26:54;;;;;;;;;;;;;;;;;;4390226;32;20022;-73
2022/02/08 15:29:20;;;;;;;7.97;2.00;;;;;;;;;;4388122;32;19953;-74
2022/02/08 15:31:45;;;;;;;12.27;3.17;;;;;;;;;;4375133;32;20060;-70
2022/02/08 15:34:11;;;;;;;;;;;;;;;;;;4375530;32;20084;-72
2022/02/08 15:36:36;;;;;;;9.98;2.33;;;;;;;;;;4375233;32;19938;-72
2022/02/08 15:39:07;;;;;;;;;;;;;;;;;;4375651;32;20027;-73
2022/02/08 15:41:36;;;;;;;7.97;1.90;;;;;;;;;;4390668;32;19938;-73
2022/02/08 15:44:03;;;;;;;8.90;2.03;;;;;;;;;;4375660;32;20027;-72
2022/02/08 15:46:30;;;;;;;10.77;3.45;;;;;;;;;;4389799;32;20172;-73
2022/02/08 15:48:55;;;;;;;10.57;2.33;;;;;;;;;;4390827;32;20046;-73
2022/02/08 15:51:30;;;;;;;;;;;;;;;;;;4390195;32;20034;-72
2022/02/08 16:07:41;;;;;;;9.68;3.00;;;;;;;;;;4389531;32;19972;-72
2022/02/08 16:10:07;;;;;;;8.52;2.15;;;;;;;;;;4388698;32;20416;-72
2022/02/08 16:15:25;;;;;;;10.40;2.85;;;;;;;;;;4384658;32;20086;-73
2022/02/08 16:18:02;;;;;;;15.48;2.95;;;;;;;;;;4391850;32;20082;-73
2022/02/08 16:26:17;;;;;;;11.23;2.53;;;;;;;;;;4390986;32;20043;-72
2022/02/08 16:28:55;;;;;;;5.00;2.05;;;;;;;;;;4375554;32;20050;-73
2022/02/08 16:52:48;;;;;;;20.20;3.08;;;;;;;;;;4390515;32;20382;-73
2022/02/08 16:57:53;;;;;;;;;;;;;;;;;;4393292;32;20373;-73
2022/02/08 17:00:22;;;;;;;12.02;2.53;;;;;;;;;;4379434;32;19930;-73
2022/02/08 17:02:55;;;;;;;9.93;2.15;;;;;;;;;;4378246;32;20049;-73
2022/02/08 17:05:20;;;;;;;8.85;2.83;;;;;;;;;;4379231;32;20054;-73
2022/02/08 17:07:45;;;;;;;;;;;;;;;;;;4376976;32;20034;-71
2022/02/08 17:10:31;;;;;;;10.43;2.87;;;;;;;;;;4377546;32;19961;-73
2022/02/08 17:13:06;;;;;;;9.93;2.30;;;;;;;;;;4391954;32;20442;-72
2022/02/08 17:34:55;;;;;;;13.65;2.70;;;;;;;;;;4390015;32;20061;-73
2022/02/08 17:48:03;;;;;;;7.53;3.08;;;;;;;;;;4392266;32;20367;-72
2022/02/08 17:50:28;;;;;;;;;;;;;;;;;;4392162;32;20104;-72
2022/02/08 17:52:55;;;;;;;12.77;3.28;;;;;;;;;;4381315;32;19976;-71
2022/02/08 17:55:21;;;;;;;13.60;2.80;;;;;;;;;;4361911;32;20058;-71
2022/02/08 17:57:46;;;;;;;;;;;;;;;;;;4362624;32;20039;-72
2022/02/08 18:00:13;;;;;;;17.98;3.70;;;;;;;;;;4362010;32;19988;-71
2022/02/08 18:02:40;;;;;;;9.68;2.97;;;;;;;;;;4362065;32;20046;-70
2022/02/08 18:05:07;;;;;;;13.00;3.37;;;;;;;;;;4362155;32;20026;-70
2022/02/08 18:07:32;;;;;;;14.32;3.28;;;;;;;;;;4389916;32;20043;-73
2022/02/08 18:09:57;;;;;;;;;;;;;;;;;;4378243;32;20027;-72
2022/02/08 18:12:25;;;;;;;10.40;2.90;;;;;;;;;;4376078;32;19976;-72
2022/02/08 18:14:55;;;;;;;13.57;3.70;;;;;;;;;;4375951;32;20058;-71
2022/02/08 18:17:27;;;;;;;10.80;2.67;;;;;;;;;;4392118;32;20046;-71
2022/02/08 18:20:03;;;;;;;9.30;2.30;;;;;;;;;;4374485;32;20015;-72
2022/02/08 18:22:37;;;;;;;8.65;2.37;;;;;;;;;;4369215;32;20420;-71
2022/02/08 19:07:00;;;;;;;18.55;3.83;;;;;;;;;;4390035;32;20391;-70
2022/02/08 19:22:01;;;;;;;12.37;2.78;;;;;;;;;;4389345;32;19973;-71
2022/02/08 19:24:26;;;;;;;;;;;;;;;;;;4377491;32;20070;-72
2022/02/08 19:26:54;;;;;;;17.80;3.37;;;;;;;;;;4390131;32;19942;-71
2022/02/08 19:29:20;;;;;;;14.18;2.50;;;;;;;;;;4377085;32;20420;-71
2022/02/08 19:31:45;;;;;;;;;;;;;;;;;;4390927;32;20061;-72
2022/02/08 19:34:10;;;;;;;12.18;2.55;;;;;;;;;;4376569;32;19958;-71
2022/02/08 19:36:35;;;;;;;;;;;;;;;;;;4375273;32;20395;-71
2022/02/08 19:39:03;;;;;;;11.45;2.85;;;;;;;;;;4360822;32;19974;-71
2022/02/08 19:41:29;;;;;;;7.60;3.65;;;;;;;;;;4374580;32;20054;-71
2022/02/08 19:43:55;;;;;;;;;;;;;;;;;;4375731;32;20027;-70
2022/02/08 19:46:20;;;;;;;11.60;3.85;;;;;;;;;;4374629;32;20393;-70
2022/02/08 19:48:45;;;;;;;;;;;;;;;;;;4362453;32;20478;-71
2022/02/08 19:51:11;;;;;;;19.37;4.00;;;;;;;;;;4379758;32;20342;-71
2022/02/08 19:53:36;;;;;;;;;;;;;;;;;;4389955;32;20023;-71
2022/02/08 19:58:42;;;;;;;14.87;3.95;;;;;;;;;;4389931;32;20087;-72
2022/02/08 20:01:11;;;;;;;;;;;;;;;;;;4390329;32;20034;-71
2022/02/08 20:03:42;;;;;;;10.98;3.22;;;;;;;;;;4386841;32;19951;-71
2022/02/08 20:06:08;;;;;;;14.45;3.12;;;;;;;;;;4361214;32;20446;-72
2022/02/08 20:08:33;;;;;;;;;;;;;;;;;;4362727;32;20035;-71
2022/02/08 20:10:58;;;;;;;13.38;3.00;;;;;;;;;;4362402;32;19946;-72
2022/02/08 20:13:24;;;;;;;;;;;;;;;;;;4374370;32;20042;-72
2022/02/08 20:15:49;;;;;;;15.50;3.22;;;;;;;;;;4376293;32;20248;-71
2022/02/08 20:18:16;;;;;;;;;;;;;;;;;;4378779;32;20015;-71
2022/02/08 20:20:41;;;;;;;17.70;4.07;;;;;;;;;;4383698;32;19991;-71
2022/02/08 20:23:06;;;;;;;;;;;;;;;;;;4377404;32;20019;-71
2022/02/08 20:25:34;;;;;;;14.95;3.75;;;;;;;;;;4388307;32;19934;-71
2022/02/08 20:28:11;;;;;;;13.48;3.35;;;;;;;;;;4368329;32;20051;-72
2022/02/08 20:30:36;;;;;;;;;;;;;;;;;;4391720;32;20027;-73
2022/02/08 20:33:04;;;;;;;13.68;3.03;;;;;;;;;;4379775;32;20345;-71
2022/02/08 20:35:30;;;;;;;14.75;3.22;;;;;;;;;;4377843;32;20093;-72
2022/02/08 20:37:55;;;;;;;;;;;;;;;;;;4391724;32;20054;-72
2022/02/08 20:40:20;;;;;;;11.30;2.80;;;;;;;;;;4392524;32;20377;-71
2022/02/08 20:42:45;;;;;;;;;;;;;;;;;;4380023;32;20110;-71
2022/02/08 20:45:11;;;;;;;19.42;3.35;;;;;;;;;;4393496;32;20300;-73
2022/02/08 20:47:40;;;;;;;;;;;;;;;;;;4378413;32;20089;-71
2022/02/08 20:50:11;;;;;;;8.27;2.87;;;;;;;;;;4378154;32;20015;-73
2022/02/08 20:52:40;;;;;;;15.30;2.90;;;;;;;;;;4385467;32;20031;-72
2022/02/08 20:55:09;;;;;;;15.15;3.53;;;;;;;;;;4369586;32;20022;-72
2022/02/08 20:57:36;;;;;;;18.58;3.50;;;;;;;;;;4358335;32;20483;-71
2022/02/08 21:00:12;;;;;;;10.35;3.45;;;;;;;;;;4363762;32;20399;-71
2022/02/08 21:02:42;;;;;;;16.98;3.55;;;;;;;;;;4366954;32;20145;-71
2022/02/08 21:07:39;;;;;;;12.90;4.32;;;;;;;;;;4392389;32;20026;-72
2022/02/08 21:10:04;;;;;;;;;;;;;;;;;;4377875;32;20084;-71
2022/02/08 21:12:40;;;;;;;17.75;3.53;;;;;;;;;;4391569;32;19940;-72
2022/02/08 21:15:08;;;;;;;;;;;;;;;;;;4378438;32;20042;-71
2022/02/08 21:17:33;;;;;;;12.18;2.80;;;;;;;;;;4379098;32;20263;-71
2022/02/08 21:19:58;;;;;;;;;;;;;;;;;;4379120;32;20027;-71
2022/02/08 21:22:23;;;;;;;10.52;2.42;;;;;;;;;;4376984;32;19945;-71
2022/02/08 21:24:52;;;;;;;;;;;;;;;;;;4378299;32;20175;-72
2022/02/08 21:27:19;;;;;;;13.50;2.53;;;;;;;;;;4378832;32;19930;-72
2022/02/08 21:29:57;;;;;;;8.02;2.75;;;;;;;;;;4379158;32;20111;-72
2022/02/08 21:32:59;;;;;;;10.70;3.00;;;;;;;;;;4391458;32;20023;-72
2022/02/08 21:51:22;;;;;;;13.95;2.90;;;;;;;;;;4392150;32;20019;-71
2022/02/08 21:53:48;;;;;;;11.60;2.85;;;;;;;;;;4378608;32;20178;-72
2022/02/08 21:56:16;;;;;;;11.95;3.03;;;;;;;;;;4377776;32;20050;-71
2022/02/08 21:58:42;;;;;;;11.48;2.90;;;;;;;;;;4378315;32;20117;-71
2022/02/08 22:01:07;;;;;;;;;;;;;;;;;;4378948;32;20059;-71
2022/02/08 22:03:32;;;;;;;11.93;3.47;;;;;;;;;;4390881;32;19934;-71
2022/02/08 22:06:00;;;;;;;;;;;;;;;;;;4391375;32;20308;-70
2022/02/08 22:08:40;;;;;;;11.07;3.37;;;;;;;;;;4378320;32;19942;-70
2022/02/08 22:21:23;;;;;;;12.68;3.75;;;;;;;;;;4389354;32;20042;-69
2022/02/08 22:23:54;;;;;;;10.88;3.10;;;;;;;;;;4376690;32;20052;-70
2022/02/08 22:29:20;;;;;;;9.40;3.17;;;;;;;;;;4391444;32;20049;-71
2022/02/08 22:31:57;;;;;;;7.15;3.17;;;;;;;;;;4390929;32;20040;-71
2022/02/08 22:34:29;;;;;;;8.05;2.78;;;;;;;;;;4378201;32;20075;-71
2022/02/08 22:37:03;;;;;;;11.55;3.60;;;;;;;;;;4377263;32;20010;-70
2022/02/08 22:39:37;;;;;;;5.43;3.00;;;;;;;;;;4376703;32;20034;-70
2022/02/08 22:42:10;;;;;;;11.23;3.35;;;;;;;;;;4378330;32;20466;-71
2022/02/08 22:47:02;;;;;;;;;;;;;;;;;;4395959;32;20064;-71
2022/02/08 22:49:27;;;;;;;10.85;3.92;;;;;;;;;;4379503;32;20224;-70
2022/02/08 22:51:52;;;;;;;;;;;;;;;;;;4382912;32;20023;-71
2022/02/08 22:54:18;;;;;;;15.77;4.68;;;;;;;;;;4396294;32;19933;-71
2022/02/08 22:56:45;;;;;;;;;;;;;;;;;;4382294;32;20157;-71
2022/02/08 22:59:11;;;;;;;12.80;4.40;;;;;;;;;;4381436;32;19993;-70
2022/02/08 23:01:37;;;;;;;11.10;3.92;;;;;;;;;;4391323;32;20030;-71